Latest Weather Observations for Tarcoola

IDS60801

Issued at 5:35 pm CST Thursday 2 October 2014 (issued every 30 minutes, with the page automatically refreshed every 10 minutes)

About weather observations | Map of weather stations | Latest weather observations for SA | Other Formats
Station Details ID: 016098 Name: TARCOOLA AERO Lat: -30.71 Lon: 134.58 Height: 123.0 m
Data from the previous 72 hours. | See also: Recent months at Tarcoola
Date/Time
CST
Temp
°C
App
Temp
°C
Dew
Point
Rel
Hum
%
Delta-T
°C
Wind Press
QNH
hPa
Press
MSL
hPa
Rain
since 9 am
mm
Dir
 
Spd
km/h
Gust
km/h
Spd
kts
Gust
kts
02/05:30pm 27.0 22.0 -0.9 16 12.9 ENE 15 22 8 12 1020.9 1020.5 0.0
02/05:00pm 27.3 21.6 -0.7 16 13.0 E 19 26 10 14 1020.7 1020.3 0.0
02/04:30pm 27.4 22.5 -0.6 16 13.0 NE 15 20 8 11 1020.7 1020.3 0.0
02/04:00pm 27.3 22.7 -0.7 16 13.0 NNE 13 22 7 12 1020.8 1020.4 0.0
02/03:30pm 27.2 21.9 -0.8 16 12.9 ENE 17 24 9 13 1021.0 1020.6 0.0
02/03:00pm 26.8 21.5 -0.3 17 12.6 ENE 17 26 9 14 1021.4 1021.0 0.0
02/02:30pm 27.1 21.9 0.0 17 12.7 ENE 17 28 9 15 1021.8 1021.4 0.0
02/02:00pm 26.2 22.2 0.8 19 12.0 E 11 22 6 12 1022.2 1021.8 0.0
02/01:30pm 26.1 22.5 0.7 19 12.0 N 9 22 5 12 1022.8 1022.5 0.0
02/01:00pm 25.8 20.1 0.5 19 11.9 ENE 20 28 11 15 1023.4 1023.1 0.0
02/12:30pm 25.5 21.3 1.6 21 11.4 NE 13 22 7 12 1024.0 1023.7 0.0
02/12:00pm 24.1 18.7 1.1 22 10.7 ENE 19 28 10 15 1024.6 1024.3 0.0
02/11:30am 24.2 20.1 2.4 24 10.4 NE 13 20 7 11 1025.1 1024.8 0.0
02/11:00am 23.2 19.2 2.7 26 9.8 N 13 19 7 10 1025.6 1025.3 0.0
02/10:30am 22.6 17.3 3.2 28 9.3 NE 20 28 11 15 1025.9 1025.6 0.0
02/10:00am 21.3 16.3 3.5 31 8.6 NE 19 26 10 14 1026.2 1025.9 0.0
02/09:30am 19.5 14.4 4.0 36 7.4 ENE 20 32 11 17 1026.6 1026.3 0.0
02/09:00am 18.4 13.3 4.2 39 6.7 ENE 20 28 11 15 1026.8 1026.5 0.0
02/08:30am 17.2 12.2 4.5 43 6.0 E 20 28 11 15 1026.6 1026.3 0.0
02/08:00am 15.8 11.0 5.4 50 5.0 E 20 26 11 14 1026.5 1026.2 0.0
02/07:30am 14.8 10.1 5.1 52 4.6 E 19 28 10 15 1026.3 1026.0 0.0
02/07:00am 13.5 9.1 4.6 55 4.1 E 17 28 9 15 1026.2 1025.9 0.0
02/06:30am 12.3 8.1 4.0 57 3.7 ESE 15 20 8 11 1026.0 1025.7 0.0
02/06:00am 12.2 8.4 3.7 56 3.8 ESE 13 15 7 8 1025.8 1025.5 0.0
02/05:30am 12.6 8.7 3.3 53 4.1 ESE 13 17 7 9 1025.7 1025.4 0.0
02/05:00am 13.2 8.6 3.6 52 4.3 ESE 17 20 9 11 1025.4 1025.1 0.0
02/04:30am 13.7 8.7 3.5 50 4.6 ESE 19 24 10 13 1025.0 1024.7 0.0
02/04:00am 13.5 8.8 3.0 49 4.7 ESE 17 20 9 11 1025.0 1024.7 0.0
02/03:30am 13.5 9.4 2.1 46 5.0 E 13 19 7 10 1025.0 1024.7 0.0
02/03:00am 14.5 9.6 1.8 42 5.6 ESE 17 22 9 12 1025.0 1024.7 0.0
02/02:30am 15.4 9.5 1.5 39 6.1 ESE 22 30 12 16 1024.8 1024.5 0.0
02/02:00am 15.2 10.1 0.6 37 6.3 ESE 17 20 9 11 1025.0 1024.7 0.0
02/01:30am 15.8 10.7 0.8 36 6.5 E 17 22 9 12 1025.2 1024.9 0.0
02/01:00am 16.3 10.7 1.2 36 6.7 ESE 20 24 11 13 1025.4 1025.1 0.0
02/12:30am 17.2 11.7 1.6 35 7.0 ESE 20 26 11 14 1025.7 1025.4 0.0
02/12:00am 16.5 12.5 2.9 40 6.2 ESE 13 15 7 8 1025.5 1025.2 0.0
 
Date/Time
CST
Temp
°C
App
Temp
°C
Dew
Point
Rel
Hum
%
Delta-T
°C
Wind Press
QNH
hPa
Press
MSL
hPa
Rain
since 9 am
mm
Dir
 
Spd
km/h
Gust
km/h
Spd
kts
Gust
kts
01/11:30pm 16.8 12.8 2.8 39 6.4 ESE 13 17 7 9 1025.5 1025.2 0.0
01/11:00pm 16.5 12.9 2.9 40 6.2 ESE 11 13 6 7 1025.7 1025.4 0.0
01/10:30pm 17.0 13.0 2.6 38 6.5 ESE 13 15 7 8 1025.8 1025.5 0.0
01/10:00pm 17.0 13.3 2.2 37 6.7 ESE 11 13 6 7 1025.9 1025.6 0.0
01/09:30pm 17.7 13.6 2.5 36 6.9 ESE 13 15 7 8 1025.9 1025.6 0.0
01/09:00pm 17.2 13.8 2.0 36 6.8 ESE 9 11 5 6 1025.9 1025.6 0.0
01/08:30pm 18.5 14.7 1.9 33 7.5 E 11 13 6 7 1025.8 1025.5 0.0
01/08:00pm 19.6 15.5 2.5 32 8.0 E 13 19 7 10 1025.6 1025.3 0.0
01/07:30pm 20.2 16.1 2.5 31 8.2 E 13 15 7 8 1025.2 1024.9 0.0
01/07:00pm 21.2 17.1 2.5 29 8.8 E 13 19 7 10 1024.9 1024.6 0.0
01/06:30pm 22.0 17.1 2.2 27 9.3 ESE 17 22 9 12 1024.6 1024.3 0.0
01/06:00pm 23.0 17.5 1.9 25 9.9 ESE 20 30 11 16 1024.4 1024.1 0.0
01/05:30pm 23.4 18.1 1.7 24 10.2 ESE 19 26 10 14 1024.3 1024.0 0.0
01/05:00pm 23.8 18.3 2.0 24 10.4 ESE 20 32 11 17 1024.2 1023.9 0.0
01/04:30pm 24.1 18.6 1.7 23 10.6 ESE 20 30 11 16 1024.2 1023.9 0.0
01/04:00pm 23.7 18.3 1.4 23 10.5 E 19 24 10 13 1024.3 1024.0 0.0
01/03:30pm 24.0 19.4 1.6 23 10.5 E 15 24 8 13 1024.4 1024.1 0.0
01/03:00pm 23.7 18.6 0.7 22 10.6 SE 17 30 9 16 1024.8 1024.5 0.0
01/02:30pm 23.5 17.4 0.6 22 10.5 ESE 22 32 12 17 1025.2 1024.9 0.0
01/02:00pm 23.2 17.5 0.3 22 10.5 ESE 20 32 11 17 1025.7 1025.4 0.0
01/01:30pm 22.4 16.7 0.3 23 10.0 SSE 20 28 11 15 1026.1 1025.8 0.0
01/01:00pm 21.8 16.2 0.9 25 9.6 S 20 26 11 14 1026.6 1026.3 0.0
01/12:30pm 21.8 16.2 1.5 26 9.4 SE 20 28 11 15 1027.0 1026.7 0.0
01/12:00pm 21.0 15.4 1.3 27 9.0 SE 20 26 11 14 1027.5 1027.2 0.0
01/11:30am 19.5 14.2 1.9 31 8.0 SE 19 24 10 13 1027.8 1027.5 0.0
01/11:00am 18.9 13.5 2.7 34 7.5 SE 20 28 11 15 1028.1 1027.8 0.0
01/10:30am 18.8 13.3 3.8 37 7.1 ESE 22 35 12 19 1028.3 1028.0 0.0
01/10:00am 17.1 11.2 4.1 42 6.1 SE 24 35 13 19 1028.6 1028.3 0.0
01/09:30am 16.5 10.4 4.9 46 5.5 SE 26 39 14 21 1028.7 1028.4 0.0
01/09:00am 16.1 9.9 6.3 52 4.8 SE 28 33 15 18 1028.7 1028.6 0.0
01/08:30am 14.9 8.8 6.7 58 4.0 SE 28 37 15 20 1028.4 1028.3 0.0
01/08:00am 14.2 9.7 7.0 62 3.5 SE 20 28 11 15 1028.1 1028.0 0.0
01/07:30am 12.3 9.1 7.0 70 2.5 SSE 13 20 7 11 1027.8 1027.7 0.0
01/07:00am 9.5 6.9 5.9 78 1.7 S 9 13 5 7 1027.5 1027.4 0.0
01/06:30am 7.5 3.9 5.0 84 1.1 SSW 13 13 7 7 1027.1 1026.9 0.0
01/06:00am 7.0 3.3 4.3 83 1.2 SW 13 13 7 7 1026.7 1026.5 0.0
01/05:30am 7.6 4.7 4.9 83 1.2 SW 9 9 5 5 1026.2 1026.0 0.0
01/05:00am 7.9 5.1 5.0 82 1.3 SW 9 9 5 5 1025.8 1025.6 0.0
01/04:30am 8.7 5.6 5.4 80 1.5 SSW 11 11 6 6 1025.5 1025.3 0.0
01/04:00am 9.4 6.7 5.8 78 1.7 S 9 11 5 6 1025.2 1025.0 0.0
01/03:30am 10.0 7.4 6.0 76 1.8 S 9 13 5 7 1025.1 1024.9 0.0
01/03:00am 10.6 7.7 6.4 75 2.0 SSW 11 15 6 8 1025.1 1024.9 0.0
01/02:30am 11.1 8.2 6.5 73 2.2 S 11 13 6 7 1025.0 1024.8 0.0
01/02:00am 11.9 8.7 6.8 71 2.4 S 13 17 7 9 1025.0 1024.8 0.0
01/01:30am 12.4 8.8 6.9 69 2.6 S 15 22 8 12 1025.0 1024.8 0.0
01/01:00am 12.9 9.4 7.1 68 2.8 S 15 19 8 10 1025.0 1024.8 0.0
01/12:30am 13.4 9.6 7.4 67 2.9 S 17 20 9 11 1025.2 1025.0 0.0
01/12:00am 13.9 9.8 7.7 66 3.1 S 19 26 10 14 1025.0 1024.8 0.0
 
Date/Time
CST
Temp
°C
App
Temp
°C
Dew
Point
Rel
Hum
%
Delta-T
°C
Wind Press
QNH
hPa
Press
MSL
hPa
Rain
since 9 am
mm
Dir
 
Spd
km/h
Gust
km/h
Spd
kts
Gust
kts
30/11:30pm 14.5 9.9 8.0 65 3.2 S 22 28 12 15 1024.9 1024.7 0.0
30/11:00pm 15.2 11.3 8.7 65 3.3 S 19 28 10 15 1024.8 1024.6 0.0
30/10:30pm 15.6 11.7 8.6 63 3.6 S 19 32 10 17 1024.8 1024.6 0.0
30/10:00pm 16.3 11.5 8.8 61 3.9 S 24 33 13 18 1024.7 1024.5 0.0
30/09:30pm 16.9 12.5 8.8 59 4.2 S 22 30 12 16 1024.4 1024.2 0.0
30/09:00pm 17.5 11.9 8.9 57 4.5 SSW 28 41 15 22 1024.0 1023.8 0.0
30/08:30pm 18.2 12.5 8.5 53 5.0 S 28 39 15 21 1023.7 1023.5 0.0
30/08:00pm 19.3 13.4 7.7 47 6.0 S 28 35 15 19 1023.0 1022.8 0.0
30/07:30pm 20.8 15.5 6.7 40 7.2 SSW 24 32 13 17 1022.1 1021.9 0.0
30/07:00pm 21.6 15.5 6.7 38 7.6 SSW 28 35 15 19 1021.5 1021.3 0.0
30/06:30pm 22.6 16.2 6.8 36 8.1 SSW 30 39 16 21 1020.9 1020.7 0.0
30/06:00pm 23.9 17.1 7.1 34 8.8 SSW 32 41 17 22 1020.1 1019.9 0.0
30/05:30pm 25.2 18.8 6.9 31 9.6 SSW 30 39 16 21 1019.4 1019.2 0.0
30/05:00pm 26.4 19.6 6.9 29 10.3 SSW 32 41 17 22 1018.9 1018.7 0.0
30/04:30pm 27.4 20.3 3.8 22 11.9 SSW 30 43 16 23 1018.4 1018.2 0.0
30/04:01pm 28.7 22.0 3.5 20 12.7 SSW 28 56 15 30 1017.8 1017.6 0.0
30/04:00pm 28.2 21.9 3.8 21 12.4 SSW 26 35 14 19 1017.9 1017.7 0.0
30/03:37pm 28.7 22.0 3.5 20 12.7 SW 28 46 15 25 1017.9 1017.7 0.0
30/03:30pm 28.4 20.9 3.3 20 12.6 SW 32 46 17 25 1018.0 1017.8 0.0
30/03:26pm 28.7 21.8 2.8 19 12.9 SW 28 46 15 25 1017.9 1017.7 0.0
30/03:00pm 28.7 22.1 4.2 21 12.5 SSW 28 44 15 24 1018.0 1017.8 0.0
30/02:30pm 28.9 22.5 3.0 19 13.0 SW 26 39 14 21 1017.9 1017.7 0.0
30/02:00pm 28.8 22.0 2.9 19 13.0 SW 28 43 15 23 1018.1 1017.9 0.0
30/01:30pm 28.3 21.9 3.2 20 12.6 SW 26 37 14 20 1018.2 1018.0 0.0
30/01:00pm 28.1 22.5 3.7 21 12.3 SSW 22 35 12 19 1018.4 1018.2 0.0
30/12:30pm 28.1 22.5 3.7 21 12.3 SW 22 32 12 17 1018.7 1018.5 0.0
30/12:00pm 27.2 20.4 3.0 21 12.0 S 28 32 15 17 1018.9 1018.7 0.0
30/11:30am 26.6 20.7 1.8 20 12.0 SSW 22 33 12 18 1018.9 1018.7 0.0
30/11:00am 26.1 20.2 1.4 20 11.8 SW 22 33 12 18 1019.1 1018.9 0.0
30/10:30am 26.1 20.6 2.1 21 11.6 S 20 26 11 14 1019.1 1018.9 0.0
30/10:00am 25.0 20.0 1.2 21 11.3 SSW 17 22 9 12 1019.3 1019.1 0.0
30/09:30am 24.0 18.6 1.0 22 10.7 SSW 19 24 10 13 1019.2 1019.0 0.0
30/09:00am 24.1 18.4 0.4 21 10.9 SSW 20 28 11 15 1019.1 1018.9 0.0
30/08:30am 22.2 17.9 1.3 25 9.7 S 13 19 7 10 1018.9 1018.7 0.0
30/08:00am 19.6 15.7 1.1 29 8.4 SW 11 15 6 8 1018.6 1018.4 0.0
30/07:30am 17.3 13.7 0.9 33 7.2 SW 9 13 5 7 1018.4 1018.2 0.0
30/07:00am 14.1 9.9 -0.7 36 6.1 WSW 11 13 6 7 1017.9 1017.7 0.0
30/06:30am 12.8 7.3 -1.9 36 5.9 SW 17 26 9 14 1016.8 1016.6 0.0
30/06:00am 10.9 8.5 -2.8 38 5.2 CALM 0 0 0 0 1016.1 1015.9 0.0
30/05:30am 11.9 7.5 -2.3 37 5.6 NNE 11 13 6 7 1015.5 1015.3 0.0
30/05:00am 13.1 9.8 -1.2 37 5.8 NE 6 7 3 4 1015.3 1015.1 0.0
30/04:30am 13.7 9.1 -1.1 36 6.1 ENE 13 13 7 7 1014.7 1014.5 0.0
30/04:00am 13.1 8.9 -1.2 37 5.8 NE 11 11 6 6 1014.5 1014.3 0.0
30/03:30am 13.2 9.3 -1.5 36 5.9 NE 9 11 5 6 1014.3 1014.1 0.0
30/03:00am 13.9 9.7 -0.9 36 6.1 NE 11 11 6 6 1014.2 1014.0 0.0
30/02:30am 12.6 8.9 -3.2 33 6.1 NE 7 11 4 6 1014.4 1014.2 0.0
30/02:00am 13.1 10.7 -3.2 32 6.3 CALM 0 0 0 0 1014.6 1014.4 0.0
30/01:30am 13.0 9.4 -3.3 32 6.3 SSW 6 7 3 4 1014.8 1014.6 0.0
30/01:00am 13.6 9.5 -3.2 31 6.6 SW 9 11 5 6 1015.0 1014.8 0.0
30/12:30am 14.2 10.6 -3.6 29 6.9 W 6 11 3 6 1015.2 1015.0 0.0
30/12:00am 16.1 12.6 -2.9 27 7.7 SSW 6 11 3 6 1015.5 1015.3 0.0
 
Date/Time
CST
Temp
°C
App
Temp
°C
Dew
Point
Rel
Hum
%
Delta-T
°C
Wind Press
QNH
hPa
Press
MSL
hPa
Rain
since 9 am
mm
Dir
 
Spd
km/h
Gust
km/h
Spd
kts
Gust
kts
29/11:30pm 16.0 12.5 -3.0 27 7.6 S 6 17 3 9 1015.6 1015.4 0.0
29/11:00pm 15.9 13.3 -4.6 24 8.0 CALM 0 0 0 0 1015.9 1015.7 0.0
29/10:30pm 16.2 13.5 -5.5 22 8.3 CALM 0 0 0 0 1015.9 1015.7 0.0
29/10:00pm 16.9 14.4 -4.3 23 8.4 CALM 0 0 0 0 1016.1 1015.9 0.0
29/09:30pm 17.4 14.8 -4.5 22 8.6 CALM 0 0 0 0 1016.0 1015.8 0.0
29/09:00pm 18.7 15.5 -3.4 22 9.0 SE 4 7 2 4 1015.9 1015.7 0.0
29/08:30pm 19.7 17.2 -3.9 20 9.7 CALM 0 0 0 0 1015.5 1015.3 0.0
29/08:00pm 21.0 18.6 -3.5 19 10.2 CALM 0 4 0 2 1015.1 1014.9 0.0
29/07:30pm 22.7 19.1 -2.1 19 10.8 SSE 7 9 4 5 1014.6 1014.4 0.0
29/07:00pm 24.7 21.2 -1.2 18 11.7 SW 7 9 4 5 1014.1 1013.9 0.0
29/06:30pm 26.4 22.5 -1.4 16 12.7 SW 9 13 5 7 1013.8 1013.6 0.0
29/06:00pm 27.9 24.4 -1.1 15 13.4 W 7 11 4 6 1013.6 1013.4 0.0

Other Formats:

Comma delimited format used in spreadsheet applications
http://www.bom.gov.au/fwo/IDS60801/IDS60801.94655.axf

JavaScript Object Notation format (JSON) in row-major order
http://www.bom.gov.au/fwo/IDS60801/IDS60801.94655.json